Time;durP1;ratioP1;P1;durP2;ratioP2;P2;SDS_P1;SDS_P2;PMS_P1;PMS_P2;Temp;Humidity;BMP_temperature;BMP_pressure;BME280_temperature;BME280_humidity;BME280_pressure;Samples;Min_cycle;Max_cycle;Signal;HPM_P1;HPM_P2
2024/04/08 00:01:23;;;;;;;1.67;1.37;;;16.90;99.90;;;;;;4446107;32;20057;-62
2024/04/08 00:03:49;;;;;;;0.68;0.68;;;17.00;99.90;;;;;;4443815;32;20545;-63
2024/04/08 00:06:15;;;;;;;0.35;0.35;;;17.10;99.90;;;;;;4443461;32;20093;-63
2024/04/08 00:08:40;;;;;;;0.85;0.80;;;17.10;99.90;;;;;;4439948;32;20092;-63
2024/04/08 00:11:07;;;;;;;0.40;0.40;;;17.00;99.90;;;;;;4441210;32;20406;-63
2024/04/08 00:13:37;;;;;;;1.35;1.00;;;16.90;99.90;;;;;;4427882;32;20080;-63
2024/04/08 00:16:04;;;;;;;2.90;1.43;;;16.80;99.90;;;;;;4445754;32;20065;-63
2024/04/08 00:18:30;;;;;;;0.80;0.80;;;16.80;99.90;;;;;;4443521;32;20061;-63
2024/04/08 00:21:03;;;;;;;0.55;0.55;;;16.80;99.90;;;;;;4443424;32;20521;-63
2024/04/08 00:23:29;;;;;;;0.93;0.65;;;16.80;99.90;;;;;;4445374;32;20049;-63
2024/04/08 00:25:55;;;;;;;0.45;0.45;;;16.80;99.90;;;;;;4445798;32;20065;-63
2024/04/08 00:28:20;;;;;;;0.80;0.80;;;16.80;99.90;;;;;;4445707;32;20060;-63
2024/04/08 00:30:46;;;;;;;0.60;0.60;;;16.60;99.90;;;;;;4444520;32;20077;-63
2024/04/08 00:33:11;;;;;;;0.30;0.30;;;16.50;99.90;;;;;;4444495;32;20105;-63
2024/04/08 00:35:37;;;;;;;0.77;0.57;;;16.50;99.90;;;;;;4443176;32;20116;-63
2024/04/08 00:38:02;;;;;;;0.40;0.40;;;16.50;99.90;;;;;;4442577;32;20421;-63
2024/04/08 00:40:37;;;;;;;0.95;0.80;;;16.60;99.90;;;;;;4441309;32;20061;-63
2024/04/08 00:43:03;;;;;;;1.70;0.95;;;16.70;99.90;;;;;;4445814;32;20088;-63
2024/04/08 00:45:31;;;;;;;3.75;1.55;;;16.60;99.90;;;;;;4443699;32;20517;-63
2024/04/08 00:47:56;;;;;;;1.08;0.85;;;16.40;99.90;;;;;;4447522;32;20053;-63
2024/04/08 00:50:22;;;;;;;0.37;0.37;;;16.50;99.90;;;;;;4446575;32;20218;-63
2024/04/08 00:52:49;;;;;;;0.50;0.50;;;16.60;99.90;;;;;;4446399;32;20068;-63
2024/04/08 00:55:15;;;;;;;2.37;1.10;;;16.80;99.90;;;;;;4448814;32;20456;-63
2024/04/08 00:57:40;;;;;;;0.50;0.50;;;16.80;99.90;;;;;;4446819;32;20135;-63
2024/04/08 01:02:35;;;;;;;0.55;0.55;;;16.90;99.90;;;;;;4445955;32;20508;-63
2024/04/08 01:05:00;;;;;;;2.50;1.00;;;16.70;99.90;;;;;;4443345;32;20519;-63
2024/04/08 01:07:26;;;;;;;2.67;1.00;;;16.70;99.90;;;;;;4449927;32;20048;-63
2024/04/08 01:09:52;;;;;;;1.87;1.02;;;16.70;99.90;;;;;;4451682;32;20515;-63
2024/04/08 01:12:17;;;;;;;0.50;0.50;;;16.70;99.90;;;;;;4447153;32;20060;-63
2024/04/08 01:14:43;;;;;;;1.10;1.02;;;16.80;99.90;;;;;;4451006;32;20057;-64
2024/04/08 01:17:15;;;;;;;0.43;0.43;;;16.80;99.90;;;;;;4448470;32;20421;-64
2024/04/08 01:19:42;;;;;;;0.70;0.70;;;16.80;99.90;;;;;;4445558;32;20538;-64
2024/04/08 01:22:07;;;;;;;0.50;0.50;;;16.70;99.90;;;;;;4443736;32;20449;-65
2024/04/08 01:24:33;;;;;;;0.60;0.60;;;16.80;99.90;;;;;;4444040;32;20065;-64
2024/04/08 01:27:00;;;;;;;0.55;0.55;;;16.90;99.90;;;;;;4445719;32;20049;-64
2024/04/08 01:29:25;;;;;;;0.60;0.60;;;17.10;99.90;;;;;;4447307;32;20530;-64
2024/04/08 01:31:50;;;;;;;0.68;0.68;;;17.20;99.90;;;;;;4448429;32;20132;-64
2024/04/08 01:34:16;;;;;;;0.82;0.82;;;17.20;99.90;;;;;;4430973;32;20423;-64
2024/04/08 01:36:41;;;;;;;1.33;1.12;;;17.30;99.90;;;;;;4443780;32;20052;-64
2024/04/08 01:39:08;;;;;;;0.65;0.65;;;17.30;99.90;;;;;;4446599;32;20066;-64
2024/04/08 01:41:33;;;;;;;0.40;0.40;;;17.30;99.90;;;;;;4449894;32;20129;-64
2024/04/08 01:43:58;;;;;;;3.62;1.67;;;17.40;99.90;;;;;;4449441;32;20398;-64
2024/04/08 01:46:24;;;;;;;2.35;0.45;;;17.40;99.90;;;;;;4446674;32;20130;-64
2024/04/08 01:48:49;;;;;;;0.60;0.60;;;17.40;99.90;;;;;;4445671;32;20555;-64
2024/04/08 01:51:15;;;;;;;0.82;0.68;;;17.30;99.90;;;;;;4446416;32;20049;-64
2024/04/08 01:53:40;;;;;;;0.60;0.60;;;17.20;99.90;;;;;;4446798;32;20077;-64
2024/04/08 01:56:06;;;;;;;0.32;0.32;;;17.20;99.90;;;;;;4446522;32;20531;-64
2024/04/08 01:58:31;;;;;;;0.50;0.50;;;17.10;99.90;;;;;;4448301;32;20434;-64
2024/04/08 02:00:57;;;;;;;0.40;0.40;;;17.10;99.90;;;;;;4446735;32;20316;-64
2024/04/08 02:03:22;;;;;;;0.37;0.37;;;17.10;99.90;;;;;;4446018;32;20089;-64
2024/04/08 02:05:48;;;;;;;0.50;0.50;;;17.10;99.90;;;;;;4446821;32;20056;-64
2024/04/08 02:08:13;;;;;;;0.50;0.50;;;17.10;99.90;;;;;;4442849;32;20073;-63
2024/04/08 02:10:40;;;;;;;0.55;0.55;;;16.90;99.90;;;;;;4445587;32;20569;-64
2024/04/08 02:13:05;;;;;;;1.00;0.90;;;16.80;99.90;;;;;;4449095;32;20131;-67
2024/04/08 02:15:31;;;;;;;0.45;0.45;;;16.80;99.90;;;;;;4444825;32;20069;-64
2024/04/08 02:17:57;;;;;;;1.45;0.88;;;16.80;99.90;;;;;;4446432;32;20108;-64
2024/04/08 02:20:22;;;;;;;2.42;0.73;;;16.70;99.90;;;;;;4442318;32;20070;-64
2024/04/08 02:22:48;;;;;;;0.60;0.60;;;16.70;99.90;;;;;;4448498;32;20068;-64
2024/04/08 02:25:13;;;;;;;1.02;0.88;;;16.60;99.90;;;;;;4442043;32;20060;-64
2024/04/08 02:27:39;;;;;;;0.37;0.37;;;16.60;99.90;;;;;;4450212;32;20077;-64
2024/04/08 02:30:05;;;;;;;0.75;0.60;;;16.60;99.90;;;;;;4444198;32;20084;-64
2024/04/08 02:32:31;;;;;;;2.45;1.60;;;16.70;99.90;;;;;;4446943;32;20445;-64
2024/04/08 02:34:56;;;;;;;0.75;0.73;;;16.70;99.90;;;;;;4444626;32;20085;-64
2024/04/08 02:37:21;;;;;;;0.75;0.75;;;16.60;99.90;;;;;;4445743;32;20065;-64
2024/04/08 02:39:47;;;;;;;0.52;0.52;;;16.60;99.90;;;;;;4448411;32;20072;-64
2024/04/08 02:42:13;;;;;;;0.45;0.45;;;16.60;99.90;;;;;;4449217;32;20147;-64
2024/04/08 02:44:38;;;;;;;2.37;1.30;;;16.60;99.90;;;;;;4444874;32;20106;-66
2024/04/08 02:47:04;;;;;;;0.50;0.50;;;16.50;99.90;;;;;;4444463;32;20499;-65
2024/04/08 02:49:29;;;;;;;0.70;0.62;;;16.50;99.90;;;;;;4440639;32;20068;-64
2024/04/08 02:51:56;;;;;;;0.73;0.65;;;16.60;99.90;;;;;;4445561;32;20097;-64
2024/04/08 02:54:22;;;;;;;1.25;0.47;;;16.60;99.90;;;;;;4430093;32;20124;-63
2024/04/08 02:56:48;;;;;;;0.68;0.68;;;16.40;99.90;;;;;;4445684;32;20134;-63
2024/04/08 02:59:14;;;;;;;3.90;1.87;;;16.30;99.90;;;;;;4443907;32;20107;-63
2024/04/08 03:01:39;;;;;;;0.40;0.40;;;16.30;99.90;;;;;;4442913;32;20131;-64
2024/04/08 03:04:05;;;;;;;0.40;0.40;;;16.40;99.90;;;;;;4445309;32;20073;-64
2024/04/08 03:06:32;;;;;;;0.52;0.52;;;16.40;99.90;;;;;;4447438;32;20076;-64
2024/04/08 03:08:57;;;;;;;0.60;0.60;;;16.40;99.90;;;;;;4445583;32;20449;-64
2024/04/08 03:11:23;;;;;;;1.08;0.98;;;16.30;99.90;;;;;;4447894;32;20081;-64
2024/04/08 03:13:48;;;;;;;2.28;1.48;;;16.20;99.90;;;;;;4450918;32;20069;-63
2024/04/08 03:16:14;;;;;;;0.43;0.43;;;16.20;99.90;;;;;;4446387;32;20073;-64
2024/04/08 03:18:39;;;;;;;3.10;1.37;;;16.20;99.90;;;;;;4447864;32;20093;-63
2024/04/08 03:21:05;;;;;;;1.08;0.70;;;16.20;99.90;;;;;;4450360;32;20615;-63
2024/04/08 03:23:31;;;;;;;0.90;0.75;;;16.20;99.90;;;;;;4447476;32;20070;-63
2024/04/08 03:25:57;;;;;;;0.40;0.40;;;16.10;99.90;;;;;;4448531;32;21137;-64
2024/04/08 03:28:23;;;;;;;1.08;1.05;;;16.10;99.90;;;;;;4446566;32;20083;-64
2024/04/08 03:30:49;;;;;;;0.45;0.40;;;16.30;99.90;;;;;;4448481;32;20065;-64
2024/04/08 03:33:15;;;;;;;0.40;0.40;;;16.30;99.90;;;;;;4445827;32;20149;-64
2024/04/08 03:35:41;;;;;;;0.57;0.57;;;16.30;99.90;;;;;;4445490;32;20531;-63
2024/04/08 03:38:06;;;;;;;0.55;0.55;;;16.20;99.90;;;;;;4446055;32;20069;-63
2024/04/08 03:40:31;;;;;;;1.45;1.12;;;16.20;99.90;;;;;;4442798;32;20106;-63
2024/04/08 03:42:57;;;;;;;0.40;0.40;;;16.20;99.90;;;;;;4443062;32;20544;-63
2024/04/08 03:45:22;;;;;;;0.50;0.50;;;16.20;99.90;;;;;;4446155;32;20066;-63
2024/04/08 03:47:48;;;;;;;1.02;0.82;;;16.30;99.90;;;;;;4444749;32;20065;-63
2024/04/08 03:50:13;;;;;;;1.27;1.12;;;16.20;99.90;;;;;;4445151;32;20129;-63
2024/04/08 03:52:39;;;;;;;0.77;0.77;;;16.20;99.90;;;;;;4447221;32;20536;-63
2024/04/08 03:55:05;;;;;;;0.40;0.40;;;16.10;99.90;;;;;;4445440;32;20528;-63
2024/04/08 03:57:30;;;;;;;4.62;0.95;;;16.20;99.90;;;;;;4448430;32;20445;-63
2024/04/08 03:59:56;;;;;;;0.80;0.80;;;16.20;99.90;;;;;;4440723;32;20536;-64
2024/04/08 04:02:21;;;;;;;0.62;0.62;;;16.30;99.90;;;;;;4439349;32;20123;-64
2024/04/08 04:04:47;;;;;;;0.88;0.88;;;16.20;99.90;;;;;;4442709;32;20139;-63
2024/04/08 04:07:12;;;;;;;0.32;0.32;;;16.10;99.90;;;;;;4441797;32;20069;-63
2024/04/08 04:09:38;;;;;;;0.68;0.68;;;16.20;99.90;;;;;;4442398;32;20082;-63
2024/04/08 04:12:04;;;;;;;0.30;0.30;;;16.20;99.90;;;;;;4442430;32;20057;-63
2024/04/08 04:14:29;;;;;;;2.53;1.65;;;16.30;99.90;;;;;;4446965;32;20065;-62
2024/04/08 04:16:55;;;;;;;0.40;0.40;;;16.30;99.90;;;;;;4444843;32;20061;-63
2024/04/08 04:19:20;;;;;;;24.67;1.12;;;16.20;99.90;;;;;;4446130;32;20424;-63
2024/04/08 04:21:46;;;;;;;4.12;1.60;;;16.20;99.90;;;;;;4436020;32;20529;-62
2024/04/08 04:24:11;;;;;;;0.57;0.57;;;16.20;99.90;;;;;;4443989;32;20090;-66
2024/04/08 04:26:37;;;;;;;1.40;0.62;;;16.20;99.90;;;;;;4443950;32;20081;-64
2024/04/08 04:29:02;;;;;;;0.50;0.50;;;16.10;99.90;;;;;;4443643;32;20114;-64
2024/04/08 04:31:41;;;;;;;3.83;1.70;;;16.10;99.90;;;;;;4443887;32;20155;-63
2024/04/08 04:34:07;;;;;;;0.90;0.52;;;15.90;99.90;;;;;;4444639;32;20060;-63
2024/04/08 04:36:32;;;;;;;0.50;0.50;;;15.90;99.90;;;;;;4445089;32;20457;-63
2024/04/08 04:38:57;;;;;;;3.37;0.80;;;16.00;99.90;;;;;;4447031;32;20080;-63
2024/04/08 04:41:23;;;;;;;1.30;1.02;;;16.10;99.90;;;;;;4443149;32;20431;-63
2024/04/08 04:43:48;;;;;;;0.60;0.60;;;16.10;99.90;;;;;;4445111;32;20505;-64
2024/04/08 04:46:14;;;;;;;1.02;0.90;;;16.10;99.90;;;;;;4445166;32;20119;-64
2024/04/08 04:48:40;;;;;;;1.75;1.20;;;16.10;99.90;;;;;;4444430;32;20516;-63
2024/04/08 04:51:05;;;;;;;1.65;1.33;;;16.00;99.90;;;;;;4442155;32;20496;-63
2024/04/08 04:53:31;;;;;;;0.62;0.52;;;15.80;99.90;;;;;;4437621;32;20449;-63
2024/04/08 04:55:56;;;;;;;0.77;0.77;;;15.90;99.90;;;;;;4446891;32;20117;-63
2024/04/08 04:58:22;;;;;;;0.62;0.50;;;15.90;99.90;;;;;;4439230;32;20567;-63
2024/04/08 05:00:49;;;;;;;1.65;1.12;;;16.00;99.90;;;;;;4443114;32;20445;-63
2024/04/08 05:03:15;;;;;;;0.68;0.60;;;16.00;99.90;;;;;;4444592;32;20461;-64
2024/04/08 05:05:40;;;;;;;0.73;0.60;;;15.90;99.90;;;;;;4440737;32;20515;-64
2024/04/08 05:08:06;;;;;;;0.40;0.40;;;15.90;99.90;;;;;;4428344;32;20127;-64
2024/04/08 05:10:32;;;;;;;0.50;0.50;;;16.00;99.90;;;;;;4440939;32;20448;-63
2024/04/08 05:12:57;;;;;;;0.70;0.70;;;15.90;99.90;;;;;;4438535;32;20057;-63
2024/04/08 05:15:23;;;;;;;1.58;0.57;;;15.90;99.90;;;;;;4420181;32;20531;-63
2024/04/08 05:17:48;;;;;;;19.23;0.70;;;15.90;99.90;;;;;;4431221;32;20076;-63
2024/04/08 05:20:15;;;;;;;0.40;0.40;;;15.80;99.90;;;;;;4430690;32;20084;-63
2024/04/08 05:22:46;;;;;;;0.65;0.65;;;15.80;99.90;;;;;;4426309;32;20065;-62
2024/04/08 05:25:12;;;;;;;0.70;0.70;;;15.80;99.90;;;;;;4427549;32;20497;-63
2024/04/08 05:27:37;;;;;;;1.12;1.02;;;15.80;99.90;;;;;;4415421;32;20109;-63
2024/04/08 05:30:05;;;;;;;2.30;1.15;;;15.80;99.90;;;;;;4430223;32;20122;-62
2024/04/08 05:32:30;;;;;;;2.75;1.37;;;15.80;99.90;;;;;;4442021;32;20065;-62
2024/04/08 05:34:56;;;;;;;3.30;0.95;;;15.80;99.90;;;;;;4440888;32;20698;-61
2024/04/08 05:37:22;;;;;;;0.80;0.80;;;15.90;99.90;;;;;;4427323;32;20078;-63
2024/04/08 05:39:48;;;;;;;1.62;1.17;;;16.00;99.90;;;;;;4425626;32;20110;-62
2024/04/08 05:42:14;;;;;;;0.50;0.50;;;16.00;99.90;;;;;;4430525;32;20077;-62
2024/04/08 05:44:39;;;;;;;0.47;0.47;;;16.00;99.90;;;;;;4433303;32;20135;-63
2024/04/08 05:47:05;;;;;;;1.00;0.68;;;16.00;99.90;;;;;;4427946;32;20074;-63
2024/04/08 05:49:30;;;;;;;24.85;2.05;;;16.10;99.90;;;;;;4429969;32;20082;-64
2024/04/08 05:51:56;;;;;;;0.80;0.75;;;16.20;99.90;;;;;;4421743;32;20134;-64
2024/04/08 05:54:23;;;;;;;1.60;0.88;;;16.20;99.90;;;;;;4418816;32;20081;-65
2024/04/08 05:56:49;;;;;;;1.05;0.80;;;16.20;99.90;;;;;;4412015;32;20194;-65
2024/04/08 05:59:14;;;;;;;6.75;0.80;;;16.00;99.90;;;;;;4405348;32;20093;-65
2024/04/08 06:01:40;;;;;;;0.68;0.60;;;16.10;99.90;;;;;;4407052;32;20785;-65
2024/04/08 06:04:07;;;;;;;0.52;0.52;;;16.10;99.90;;;;;;4414353;32;20101;-65
2024/04/08 06:06:33;;;;;;;5.10;1.10;;;16.20;99.90;;;;;;4414874;32;20127;-64
2024/04/08 06:09:04;;;;;;;0.68;0.68;;;16.30;99.90;;;;;;4415566;32;20750;-64
2024/04/08 06:11:30;;;;;;;0.68;0.68;;;16.40;99.90;;;;;;4410407;32;20486;-65
2024/04/08 06:13:55;;;;;;;0.70;0.70;;;16.60;99.90;;;;;;4407646;32;20357;-65
2024/04/08 06:16:21;;;;;;;2.28;1.55;;;16.70;99.90;;;;;;4410922;32;20078;-65
2024/04/08 06:18:46;;;;;;;2.83;1.37;;;16.80;99.90;;;;;;4411367;32;20185;-65
2024/04/08 06:21:12;;;;;;;0.45;0.45;;;16.90;99.90;;;;;;4413709;32;20121;-65
2024/04/08 06:23:37;;;;;;;0.52;0.52;;;16.80;99.90;;;;;;4405812;32;20096;-64
2024/04/08 06:26:03;;;;;;;1.95;1.50;;;16.80;99.90;;;;;;4415726;32;20415;-63
2024/04/08 06:28:30;;;;;;;0.85;0.85;;;16.80;99.90;;;;;;4415193;32;20093;-64
2024/04/08 06:30:56;;;;;;;1.23;1.12;;;16.80;99.90;;;;;;4411000;32;20100;-64
2024/04/08 06:33:22;;;;;;;0.50;0.50;;;16.80;99.90;;;;;;4411077;32;20127;-64
2024/04/08 06:35:47;;;;;;;2.03;1.45;;;16.80;99.90;;;;;;4414056;32;20134;-63
2024/04/08 06:38:13;;;;;;;0.55;0.55;;;17.00;99.90;;;;;;4415188;32;20115;-62
2024/04/08 06:40:40;;;;;;;0.57;0.57;;;17.10;99.90;;;;;;4417386;32;20861;-63
2024/04/08 06:43:06;;;;;;;0.95;0.95;;;17.20;99.90;;;;;;4411766;32;20454;-63
2024/04/08 06:45:31;;;;;;;0.45;0.45;;;17.30;99.90;;;;;;4419773;32;20474;-63
2024/04/08 06:47:57;;;;;;;1.48;0.88;;;17.30;99.90;;;;;;4407826;32;20081;-63
2024/04/08 06:50:23;;;;;;;0.65;0.65;;;17.30;99.90;;;;;;4412747;32;20125;-64
2024/04/08 06:52:48;;;;;;;1.75;0.95;;;17.30;99.90;;;;;;4415397;32;20566;-62
2024/04/08 06:55:16;;;;;;;2.90;1.50;;;17.30;99.90;;;;;;4416731;32;20054;-64
2024/04/08 06:57:42;;;;;;;0.73;0.68;;;17.30;99.90;;;;;;4412921;32;20106;-64
2024/04/08 07:02:36;;;;;;;1.62;1.00;;;17.30;99.90;;;;;;4410621;32;20184;-64
2024/04/08 07:05:02;;;;;;;0.88;0.88;;;17.30;99.90;;;;;;4414654;32;20069;-64
2024/04/08 07:07:28;;;;;;;0.45;0.45;;;17.40;99.90;;;;;;4402146;32;20104;-63
2024/04/08 07:09:53;;;;;;;1.90;1.70;;;17.40;99.90;;;;;;4403008;32;20069;-64
2024/04/08 07:12:19;;;;;;;4.12;1.08;;;17.40;99.90;;;;;;4411815;32;20085;-64
2024/04/08 07:14:44;;;;;;;10.38;2.47;;;17.30;99.90;;;;;;4407488;32;20564;-64
2024/04/08 07:17:10;;;;;;;2.08;1.65;;;17.50;99.90;;;;;;4403754;32;20081;-64
2024/04/08 07:19:37;;;;;;;0.50;0.50;;;17.50;99.90;;;;;;4403800;32;20089;-64
2024/04/08 07:22:03;;;;;;;0.62;0.62;;;17.70;99.90;;;;;;4407825;32;20088;-64
2024/04/08 07:24:28;;;;;;;1.52;1.00;;;17.70;99.90;;;;;;4402118;32;20150;-64
2024/04/08 07:26:54;;;;;;;0.85;0.60;;;17.80;99.90;;;;;;4400676;32;21020;-65
2024/04/08 07:29:19;;;;;;;1.17;1.08;;;18.00;99.90;;;;;;4403916;32;20073;-64
2024/04/08 07:31:45;;;;;;;1.25;0.80;;;18.10;99.90;;;;;;4397872;32;20865;-63
2024/04/08 07:34:10;;;;;;;5.07;1.25;;;18.20;99.90;;;;;;4396222;32;20204;-65
2024/04/08 07:36:36;;;;;;;1.15;0.98;;;18.20;99.90;;;;;;4408621;32;20081;-64
2024/04/08 07:39:02;;;;;;;0.47;0.47;;;18.40;99.90;;;;;;4406016;32;20113;-64
2024/04/08 07:41:28;;;;;;;4.93;2.15;;;18.50;99.90;;;;;;4410343;32;20402;-65
2024/04/08 07:43:54;;;;;;;2.25;1.42;;;18.60;99.90;;;;;;4405329;32;20097;-63
2024/04/08 07:46:22;;;;;;;1.67;0.80;;;18.60;99.90;;;;;;4405228;32;20585;-65
2024/04/08 07:48:48;;;;;;;0.95;0.77;;;18.60;99.90;;;;;;4409639;32;20163;-64
2024/04/08 07:51:13;;;;;;;1.50;1.10;;;18.70;99.90;;;;;;4402640;32;20611;-64
2024/04/08 07:53:39;;;;;;;0.68;0.68;;;18.80;99.90;;;;;;4402734;32;20070;-65
2024/04/08 07:56:05;;;;;;;5.03;1.95;;;18.80;99.90;;;;;;4407099;32;20158;-65
2024/04/08 07:58:30;;;;;;;3.00;1.85;;;18.90;99.90;;;;;;4400205;32;20248;-65
2024/04/08 08:00:58;;;;;;;0.52;0.52;;;19.00;99.90;;;;;;4405464;32;20121;-65
2024/04/08 08:03:26;;;;;;;1.02;0.98;;;19.00;99.90;;;;;;4405347;32;20088;-65
2024/04/08 08:05:52;;;;;;;1.00;0.90;;;19.10;99.90;;;;;;4405255;32;20065;-65
2024/04/08 08:08:17;;;;;;;1.17;1.00;;;19.00;99.90;;;;;;4410548;32;20552;-65
2024/04/08 08:10:44;;;;;;;0.50;0.50;;;19.00;99.90;;;;;;4402559;32;20152;-65
2024/04/08 08:13:10;;;;;;;1.87;1.20;;;19.00;99.90;;;;;;4402059;32;21117;-66
2024/04/08 08:15:35;;;;;;;0.40;0.40;;;18.90;99.90;;;;;;4401442;32;21013;-66
2024/04/08 08:18:01;;;;;;;0.57;0.57;;;19.00;99.90;;;;;;4408966;32;20077;-65
2024/04/08 08:20:27;;;;;;;0.60;0.55;;;18.90;99.90;;;;;;4407400;32;20089;-65
2024/04/08 08:22:56;;;;;;;2.03;1.35;;;18.90;99.90;;;;;;4414128;32;20077;-65
2024/04/08 08:25:23;;;;;;;7.72;1.20;;;19.00;99.90;;;;;;4408851;32;20678;-65
2024/04/08 08:27:48;;;;;;;0.82;0.82;;;19.00;99.90;;;;;;4406773;32;20729;-65
2024/04/08 08:30:14;;;;;;;0.50;0.50;;;19.00;99.90;;;;;;4404532;32;20114;-65
2024/04/08 08:32:40;;;;;;;0.50;0.50;;;19.10;99.90;;;;;;4410512;32;20081;-65
2024/04/08 08:35:05;;;;;;;0.40;0.40;;;19.10;99.90;;;;;;4410378;32;22352;-66
2024/04/08 08:37:31;;;;;;;5.97;0.90;;;19.20;99.90;;;;;;4406379;32;20195;-65
2024/04/08 08:39:57;;;;;;;0.68;0.68;;;19.20;99.90;;;;;;4393931;32;20100;-65
2024/04/08 08:42:28;;;;;;;4.12;0.80;;;19.20;99.90;;;;;;4389662;32;20558;-65
2024/04/08 08:44:55;;;;;;;;;;;19.10;99.90;;;;;;4398424;32;20100;-65
2024/04/08 08:47:22;;;;;;;0.60;0.60;;;19.10;99.90;;;;;;4404572;32;20004;-66
2024/04/08 08:49:52;;;;;;;0.70;0.70;;;19.20;99.90;;;;;;4402565;32;20126;-65
2024/04/08 08:52:18;;;;;;;0.45;0.45;;;19.20;99.90;;;;;;4400779;32;22249;-65
2024/04/08 08:54:44;;;;;;;1.90;0.90;;;19.20;99.90;;;;;;4405265;32;20208;-65
2024/04/08 08:57:10;;;;;;;3.47;1.75;;;19.20;99.90;;;;;;4408358;32;21670;-65
2024/04/08 08:59:40;;;;;;;0.70;0.70;;;19.20;99.90;;;;;;4408920;32;20073;-65
2024/04/08 09:02:09;;;;;;;0.55;0.55;;;19.30;99.90;;;;;;4407525;32;20085;-66
2024/04/08 09:04:35;;;;;;;0.75;0.75;;;19.60;99.90;;;;;;4409584;32;20072;-66
2024/04/08 09:07:00;;;;;;;2.78;0.88;;;19.80;99.90;;;;;;4426888;32;20246;-66
2024/04/08 09:09:26;;;;;;;0.80;0.65;;;20.00;99.90;;;;;;4414553;32;20137;-64
2024/04/08 09:11:51;;;;;;;0.95;0.60;;;20.20;99.90;;;;;;4411001;32;20081;-64
2024/04/08 09:14:17;;;;;;;0.75;0.65;;;20.10;99.90;;;;;;4413313;32;20073;-66
2024/04/08 09:16:42;;;;;;;3.42;1.00;;;20.10;99.90;;;;;;4412592;32;20101;-65
2024/04/08 09:19:09;;;;;;;0.60;0.60;;;20.10;99.90;;;;;;4408370;32;20421;-65
2024/04/08 09:21:34;;;;;;;10.68;2.28;;;20.00;99.90;;;;;;4404761;32;20105;-65
2024/04/08 09:24:02;;;;;;;15.13;1.25;;;20.00;99.90;;;;;;4410635;32;20128;-66
2024/04/08 09:26:27;;;;;;;0.57;0.57;;;20.10;99.90;;;;;;4399410;32;20740;-67
2024/04/08 09:28:53;;;;;;;1.12;1.02;;;20.20;99.90;;;;;;4394633;32;20081;-66
2024/04/08 09:31:20;;;;;;;0.60;0.60;;;20.30;99.90;;;;;;4398615;32;20444;-64
2024/04/08 09:33:46;;;;;;;0.55;0.55;;;20.40;99.90;;;;;;4399208;32;20123;-67
2024/04/08 09:36:12;;;;;;;2.45;1.55;;;20.50;99.90;;;;;;4407313;32;20080;-65
2024/04/08 09:38:39;;;;;;;0.73;0.73;;;20.70;99.90;;;;;;4407940;32;20110;-65
2024/04/08 09:41:05;;;;;;;5.03;1.17;;;21.10;99.90;;;;;;4407079;32;20379;-65
2024/04/08 09:43:31;;;;;;;3.95;1.52;;;21.50;99.90;;;;;;4413233;32;20105;-65
2024/04/08 09:46:00;;;;;;;1.85;0.85;;;21.70;99.90;;;;;;4407849;32;20072;-65
2024/04/08 09:48:25;;;;;;;3.35;1.27;;;21.70;99.90;;;;;;4410668;32;20411;-65
2024/04/08 09:50:53;;;;;;;4.12;1.42;;;21.60;99.90;;;;;;4410105;32;20456;-65
2024/04/08 09:53:19;;;;;;;0.50;0.50;;;21.40;99.90;;;;;;4416005;32;20174;-65
2024/04/08 09:55:50;;;;;;;0.40;0.40;;;21.30;99.90;;;;;;4414245;32;20520;-65
2024/04/08 09:58:17;;;;;;;;;;;21.30;99.90;;;;;;4410018;32;20089;-65
2024/04/08 10:00:45;;;;;;;4.37;1.58;;;21.40;99.90;;;;;;4410342;32;20519;-65
2024/04/08 10:03:14;;;;;;;0.68;0.50;;;21.70;99.90;;;;;;4412956;32;20132;-64
2024/04/08 10:05:39;;;;;;;0.60;0.60;;;22.00;99.90;;;;;;4411283;32;20072;-65
2024/04/08 10:08:06;;;;;;;0.50;0.50;;;22.30;99.90;;;;;;4409872;32;20355;-65
2024/04/08 10:10:32;;;;;;;0.80;0.80;;;22.50;99.90;;;;;;4411511;32;20056;-65
2024/04/08 10:12:58;;;;;;;3.50;1.50;;;22.70;99.90;;;;;;4411100;32;20360;-66
2024/04/08 10:15:31;;;;;;;0.57;0.50;;;22.80;99.90;;;;;;4411088;32;20089;-65
2024/04/08 10:17:56;;;;;;;0.43;0.43;;;23.10;99.90;;;;;;4405387;32;20299;-65
2024/04/08 10:20:23;;;;;;;4.68;1.70;;;23.40;99.90;;;;;;4410325;32;20498;-64
2024/04/08 10:22:49;;;;;;;2.45;0.73;;;23.70;99.90;;;;;;4412102;32;20147;-65
2024/04/08 10:25:33;;;;;;;1.17;1.08;;;24.00;99.90;;;;;;4414981;32;20110;-65
2024/04/08 10:28:18;;;;;;;1.80;1.17;;;24.30;99.90;;;;;;4415776;32;20080;-63
2024/04/08 10:30:46;;;;;;;0.60;0.60;;;24.60;99.90;;;;;;4416356;32;20537;-64
2024/04/08 10:33:13;;;;;;;0.50;0.50;;;25.10;99.90;;;;;;4425849;32;20064;-64
2024/04/08 10:35:39;;;;;;;2.78;1.37;;;25.00;99.90;;;;;;4426365;32;20821;-65
2024/04/08 10:38:06;;;;;;;3.83;1.30;;;25.00;99.90;;;;;;4413787;32;20197;-65
2024/04/08 10:40:31;;;;;;;0.70;0.70;;;25.30;99.90;;;;;;4428906;32;20119;-65
2024/04/08 10:42:58;;;;;;;11.20;0.55;;;25.50;99.90;;;;;;4427061;32;20081;-65
2024/04/08 10:45:23;;;;;;;2.90;0.60;;;25.80;99.90;;;;;;4428668;32;20244;-64
2024/04/08 10:47:56;;;;;;;28.20;1.50;;;25.90;99.90;;;;;;4423896;32;20076;-64
2024/04/08 10:50:21;;;;;;;0.52;0.52;;;26.00;99.90;;;;;;4423645;32;20440;-63
2024/04/08 10:52:48;;;;;;;0.30;0.30;;;25.80;99.90;;;;;;4427070;32;20062;-63
2024/04/08 10:55:14;;;;;;;5.53;0.85;;;25.80;99.90;;;;;;4407829;32;20289;-64
2024/04/08 10:57:39;;;;;;;4.03;1.45;;;26.00;99.90;;;;;;4400240;32;20164;-64
2024/04/08 11:00:05;;;;;;;1.10;0.73;;;26.20;99.90;;;;;;4405449;32;20188;-63
2024/04/08 11:02:32;;;;;;;0.37;0.37;;;26.50;99.90;;;;;;4411150;32;20136;-64
2024/04/08 11:05:00;;;;;;;6.03;0.80;;;26.40;99.90;;;;;;4410714;32;20119;-64
2024/04/08 11:07:26;;;;;;;3.45;0.55;;;26.80;99.90;;;;;;4411392;32;20069;-65
2024/04/08 11:09:51;;;;;;;10.38;0.65;;;26.80;99.90;;;;;;4415877;32;20069;-64
2024/04/08 11:12:17;;;;;;;2.78;0.47;;;26.80;99.90;;;;;;4413336;32;20074;-64
2024/04/08 11:14:42;;;;;;;1.55;0.95;;;27.10;99.90;;;;;;4410507;32;20096;-65
2024/04/08 11:17:08;;;;;;;1.23;0.80;;;27.00;99.90;;;;;;4412304;32;20422;-64
2024/04/08 11:19:37;;;;;;;0.60;0.60;;;26.70;99.90;;;;;;4414467;32;20081;-64
2024/04/08 11:22:07;;;;;;;0.30;0.30;;;26.70;99.90;;;;;;4414539;32;20097;-64
2024/04/08 11:24:33;;;;;;;0.40;0.40;;;26.40;99.90;;;;;;4415367;32;20166;-64
2024/04/08 11:26:59;;;;;;;2.83;0.80;;;26.60;99.90;;;;;;4414762;32;20339;-62
2024/04/08 11:29:24;;;;;;;0.62;0.62;;;27.00;99.90;;;;;;4406324;32;20504;-63
2024/04/08 11:31:49;;;;;;;2.22;0.82;;;27.20;99.90;;;;;;4407534;32;20076;-64
2024/04/08 11:34:15;;;;;;;33.13;1.40;;;27.10;99.90;;;;;;4413852;32;20116;-63
2024/04/08 11:36:41;;;;;;;5.25;2.22;;;27.10;99.90;;;;;;4414161;32;20092;-63
2024/04/08 11:39:07;;;;;;;0.20;0.20;;;27.60;99.90;;;;;;4412144;32;20564;-65
2024/04/08 11:41:32;;;;;;;0.40;0.40;;;27.90;99.90;;;;;;4405201;32;20077;-65
2024/04/08 11:43:58;;;;;;;1.42;0.70;;;28.10;99.90;;;;;;4400647;32;20623;-65
2024/04/08 11:46:24;;;;;;;0.85;0.75;;;28.50;99.90;;;;;;4404639;32;20365;-65
2024/04/08 11:48:49;;;;;;;2.87;1.05;;;28.90;98.60;;;;;;4400356;32;20183;-65
2024/04/08 11:51:15;;;;;;;0.40;0.40;;;28.90;97.50;;;;;;4413270;32;20374;-64
2024/04/08 11:53:40;;;;;;;0.95;0.32;;;28.80;97.90;;;;;;4408360;32;137463;-65
2024/04/08 11:56:08;;;;;;;3.37;1.58;;;28.80;98.40;;;;;;4415090;32;20070;-64
2024/04/08 11:58:34;;;;;;;0.50;0.50;;;29.00;97.90;;;;;;4401055;32;20404;-65
2024/04/08 12:01:02;;;;;;;1.98;1.27;;;29.00;97.70;;;;;;4408304;32;20514;-65
2024/04/08 12:03:27;;;;;;;2.05;0.77;;;29.10;98.10;;;;;;4416780;32;20771;-65
2024/04/08 12:05:53;;;;;;;0.47;0.47;;;29.20;97.00;;;;;;4405629;32;20065;-65
2024/04/08 12:08:18;;;;;;;0.47;0.47;;;28.90;97.20;;;;;;4412501;32;20699;-64
2024/04/08 12:10:44;;;;;;;0.57;0.57;;;29.10;97.00;;;;;;4418012;32;20118;-64
2024/04/08 12:13:26;;;;;;;3.58;1.12;;;29.20;96.60;;;;;;4413232;32;20057;-64
2024/04/08 12:15:51;;;;;;;5.07;0.82;;;29.90;96.40;;;;;;4414986;32;20406;-65
2024/04/08 12:18:17;;;;;;;12.05;1.90;;;29.70;95.80;;;;;;4409004;32;21012;-62
2024/04/08 12:20:42;;;;;;;1.83;1.05;;;29.90;95.80;;;;;;4411066;32;20061;-63
2024/04/08 12:23:11;;;;;;;0.40;0.40;;;30.10;95.30;;;;;;4407550;32;20663;-63
2024/04/08 12:25:37;;;;;;;2.65;1.67;;;30.10;94.90;;;;;;4411572;32;22095;-64
2024/04/08 12:28:04;;;;;;;1.35;1.20;;;30.20;95.80;;;;;;4413228;32;20101;-62
2024/04/08 12:30:30;;;;;;;2.35;0.80;;;29.90;95.40;;;;;;4406524;32;20458;-64
2024/04/08 12:32:56;;;;;;;2.75;1.42;;;30.00;95.20;;;;;;4410178;32;20454;-63
2024/04/08 12:35:21;;;;;;;1.65;0.88;;;30.30;94.80;;;;;;4421566;32;20548;-64
2024/04/08 12:37:47;;;;;;;1.62;0.57;;;30.20;94.80;;;;;;4422143;32;20117;-64
2024/04/08 12:40:12;;;;;;;0.62;0.62;;;30.30;95.90;;;;;;4428714;32;20064;-65
2024/04/08 12:42:38;;;;;;;0.43;0.43;;;30.50;95.20;;;;;;4427724;32;20073;-65
2024/04/08 12:45:03;;;;;;;0.60;0.60;;;31.00;94.70;;;;;;4428396;32;20141;-65
2024/04/08 12:47:29;;;;;;;3.40;1.33;;;31.30;94.20;;;;;;4440224;32;20509;-65